Valparaiso, IN (46383)

10:16 AM CDT on August 30, 2016 (GMT -0500)
| | Change Station

Elev -9999 ft 0.00 °N, 0.00 °E | Updated

Thunderstorm
Thunderstorm
78 °F
Feels Like 78 °F
N
4
Wind Variable Wind from SW
Gusts mph

Today
High -- | Low -- °F
--% Chance of Precip.
Yesterday
High -- | Low -- °F
Precip. -- in
Pressure 30.13 in
Visibility 10.0 miles
Clouds Few 600 ft
Few 7500 ft
Overcast 11000 ft
Dew Point 70 °F
Humidity 78%
Rainfall --
Snow Depth Not available.
6:12 AM 7:23 PM
Waning Crescent, 3% visible
METAR KVPZ 301456Z AUTO 10008KT 10SM FEW006 FEW075 OVC110 22/21 A3014 RMK AO2 LTG DSNT NE RAE37 SLP201 P0000 60001 T02220211 56011
Pressure 30.13 in
Visibility 10.0 miles
Clouds Few 600 ft
Few 7500 ft
Overcast 11000 ft
Dew Point 70 °F
Humidity 78%
Rainfall --
Snow Depth Not available.
6:12 AM 7:23 PM
Waning Crescent, 3% visible
METAR KVPZ 301456Z AUTO 10008KT 10SM FEW006 FEW075 OVC110 22/21 A3014 RMK AO2 LTG DSNT NE RAE37 SLP201 P0000 60001 T02220211 56011

10-Day Weather Forecast

Almanac

Astronomy

Aug. 30, 2016 Rise Set
Actual Time
Civil Twilight
Nautical Twilight
Astronomical Twilight
Moon
Length of Visible Light
Length of Day
Tomorrow will be .
, % of the Moon is Illuminated

Today's Extremes

State Highs State Lows

Community

WunderPhotos

Upload Photos

1,935,855 photos uploaded!

WunderBlog® & News

Nearby

Air Quality

  Air Quality AQ Index Pollutant
Not available.

Snow Depth

Station Depth Elevation

Earthquake Activity

City Distance Mag. Time & Date
Minimum magnitude displayed is 2.5.

Coastal Water Temperatures

Place Temperature

Stations

Nearby Weather Stations

Station Location Temp. Windchill Dew Point Humidity Wind Precip. Elev Updated Type
                   

Watches & Warnings

There are currently no watches in effect.